Time;durP1;ratioP1;P1;durP2;ratioP2;P2;SDS_P1;SDS_P2;PMS_P1;PMS_P2;Temp;Humidity;BMP_temperature;BMP_pressure;BME280_temperature;BME280_humidity;BME280_pressure;Samples;Min_cycle;Max_cycle;Signal;HPM_P1;HPM_P2
2023/07/21 00:01:43;;;;;;;2.90;0.90;;;;;;;11.93;74.69;99071.79;106842;1269;25607;-47
2023/07/21 00:04:12;;;;;;;5.50;0.90;;;;;;;11.90;74.72;99071.16;106905;1269;25236;-46
2023/07/21 00:06:44;;;;;;;2.40;0.90;;;;;;;11.88;74.79;99070.02;106729;1276;99144;-46
2023/07/21 00:09:13;;;;;;;2.20;0.80;;;;;;;11.88;74.96;99069.67;106839;1269;22580;-45
2023/07/21 00:11:42;;;;;;;2.90;0.90;;;;;;;11.84;74.66;99068.12;106821;1269;99461;-46
2023/07/21 00:14:11;;;;;;;1.90;0.90;;;;;;;11.79;74.70;99065.61;106850;1269;24240;-47
2023/07/21 00:16:39;;;;;;;2.20;0.80;;;;;;;11.76;74.73;99064.10;107003;1266;23902;-47
2023/07/21 00:19:08;;;;;;;2.10;0.80;;;;;;;11.74;75.04;99063.19;106589;1271;99117;-46
2023/07/21 00:24:39;;;;;;;1.80;0.60;;;;;;;11.69;75.36;99062.95;103762;1271;101708;-50
2023/07/21 00:27:08;;;;;;;2.90;0.70;;;;;;;11.71;76.02;99061.47;106585;1270;25372;-48
2023/07/21 00:29:36;;;;;;;3.40;0.90;;;;;;;11.72;75.83;99062.24;106635;1271;99313;-48
2023/07/21 00:32:05;;;;;;;3.40;0.90;;;;;;;11.73;76.10;99062.18;106371;1275;22550;-47
2023/07/21 00:34:34;;;;;;;1.50;0.60;;;;;;;11.73;75.75;99064.42;106443;1272;23003;-47
2023/07/21 00:37:04;;;;;;;2.90;1.00;;;;;;;11.76;75.91;99068.83;106470;1271;99045;-46
2023/07/21 00:39:33;;;;;;;1.40;0.80;;;;;;;11.78;76.11;99061.86;106592;1271;22530;-48
2023/07/21 00:42:04;;;;;;;3.30;1.00;;;;;;;11.81;76.77;99064.28;106434;1272;99336;-47
2023/07/21 00:44:36;;;;;;;2.30;0.60;;;;;;;11.85;76.96;99063.90;106451;1272;24356;-46
2023/07/21 00:47:05;;;;;;;2.50;1.50;;;;;;;11.88;76.60;99064.79;106490;1271;22531;-47
2023/07/21 00:49:35;;;;;;;1.40;0.70;;;;;;;11.90;76.72;99060.86;106520;1271;98862;-47
2023/07/21 00:52:04;;;;;;;3.90;0.90;;;;;;;11.89;76.66;99066.99;106642;1271;25433;-46
2023/07/21 00:54:32;;;;;;;5.00;0.90;;;;;;;11.86;76.63;99065.94;106559;1271;99179;-48
2023/07/21 00:57:01;;;;;;;1.80;1.00;;;;;;;11.83;76.47;99070.61;106550;1271;25327;-47
2023/07/21 00:59:30;;;;;;;5.40;1.30;;;;;;;11.77;76.65;99072.89;106537;1271;99735;-49
2023/07/21 01:01:59;;;;;;;4.40;1.20;;;;;;;11.75;77.01;99066.42;106597;1272;22527;-47
2023/07/21 01:04:28;;;;;;;2.40;0.70;;;;;;;11.73;77.05;99066.91;106467;1272;24272;-48
2023/07/21 01:06:58;;;;;;;2.10;0.70;;;;;;;11.73;77.32;99066.58;106460;1272;99095;-47
2023/07/21 01:09:27;;;;;;;2.10;0.80;;;;;;;11.71;77.24;99065.29;106540;1271;25376;-46
2023/07/21 01:11:56;;;;;;;5.40;0.70;;;;;;;11.68;77.23;99065.10;106314;1273;99412;-46
2023/07/21 01:14:25;;;;;;;1.00;0.60;;;;;;;11.66;77.25;99066.27;106691;1271;25295;-46
2023/07/21 01:16:56;;;;;;;4.70;0.80;;;;;;;11.60;77.05;99064.20;106376;1272;24213;-46
2023/07/21 01:19:28;;;;;;;2.00;1.00;;;;;;;11.53;77.12;99069.00;106481;1272;99081;-47
2023/07/21 01:22:08;;;;;;;2.80;1.30;;;;;;;11.47;77.31;99071.84;106379;1272;25301;-47
2023/07/21 01:24:43;;;;;;;3.70;0.90;;;;;;;11.42;77.46;99069.11;106480;1271;99498;-48
2023/07/21 01:27:13;;;;;;;1.70;0.70;;;;;;;11.40;77.72;99070.11;106479;1272;23439;-47
2023/07/21 01:29:43;;;;;;;3.20;1.50;;;;;;;11.37;77.75;99072.59;106318;1271;99916;-46
2023/07/21 01:32:14;;;;;;;2.10;0.70;;;;;;;11.33;77.69;99073.33;106449;1272;25454;-47
2023/07/21 01:34:44;;;;;;;4.30;1.10;;;;;;;11.32;77.90;99073.80;106882;1271;22523;-46
2023/07/21 01:37:15;;;;;;;1.10;0.60;;;;;;;11.25;78.00;99078.71;106463;1272;100582;-45
2023/07/21 01:39:44;;;;;;;3.10;0.80;;;;;;;11.20;78.03;99081.30;106576;1271;23131;-46
2023/07/21 01:42:13;;;;;;;2.00;0.80;;;;;;;11.17;78.41;99077.83;106369;1271;99850;-47
2023/07/21 01:44:43;;;;;;;5.70;1.70;;;;;;;11.14;78.35;99077.11;106618;1271;22558;-46
2023/07/21 01:47:11;;;;;;;3.00;1.10;;;;;;;11.12;78.50;99077.44;106446;1271;99373;-47
2023/07/21 01:49:40;;;;;;;4.40;1.20;;;;;;;11.14;79.03;99076.81;106746;1271;25375;-48
2023/07/21 01:52:09;;;;;;;1.20;0.70;;;;;;;11.19;79.11;99074.38;106507;1271;25733;-47
2023/07/21 01:54:52;;;;;;;5.60;1.30;;;;;;;11.18;78.84;99070.78;106430;1272;99915;-47
2023/07/21 01:57:36;;;;;;;1.20;0.60;;;;;;;11.17;78.94;99072.58;106673;1271;22542;-45
2023/07/21 02:00:10;;;;;;;4.00;0.80;;;;;;;11.16;79.00;99066.54;106529;1271;101258;-46
2023/07/21 02:02:44;;;;;;;2.50;0.80;;;;;;;11.13;79.00;99069.68;106505;1272;22527;-45
2023/07/21 02:05:20;;;;;;;3.30;0.80;;;;;;;11.10;78.94;99074.42;106362;1272;99856;-46
2023/07/21 02:07:50;;;;;;;2.30;0.90;;;;;;;11.07;79.25;99070.63;106514;1271;22659;-47
2023/07/21 02:10:19;;;;;;;5.60;1.20;;;;;;;11.07;79.58;99068.18;106462;1271;25498;-45
2023/07/21 02:12:48;;;;;;;2.00;0.80;;;;;;;11.05;79.38;99067.06;106475;1271;99331;-46
2023/07/21 02:15:17;;;;;;;2.10;0.80;;;;;;;11.03;79.92;99065.22;106536;1265;23878;-46
2023/07/21 02:17:46;;;;;;;2.20;0.70;;;;;;;11.04;79.71;99067.16;106425;1271;99266;-47
2023/07/21 02:20:15;;;;;;;3.50;1.30;;;;;;;11.02;79.73;99068.48;106499;1272;26191;-47
2023/07/21 02:22:44;;;;;;;1.50;0.90;;;;;;;11.00;79.80;99070.30;106521;1271;25300;-47
2023/07/21 02:25:13;;;;;;;2.40;1.00;;;;;;;10.99;79.91;99070.33;106431;1272;100812;-47
2023/07/21 02:27:42;;;;;;;6.60;1.10;;;;;;;10.98;79.85;99069.19;106560;1271;22613;-45
2023/07/21 02:30:11;;;;;;;8.60;1.30;;;;;;;10.96;79.88;99070.89;106458;1272;100973;-47
2023/07/21 02:32:40;;;;;;;18.40;1.40;;;;;;;10.94;79.89;99069.09;106599;1271;24445;-46
2023/07/21 02:35:09;;;;;;;6.20;0.90;;;;;;;10.90;79.90;99069.64;106518;1272;22538;-46
2023/07/21 02:37:38;;;;;;;3.90;0.90;;;;;;;10.87;79.92;99070.17;106545;1272;25294;-47
2023/07/21 02:40:07;;;;;;;12.10;1.60;;;;;;;10.83;80.08;99074.08;106594;1271;24272;-46
2023/07/21 02:42:36;;;;;;;7.30;1.40;;;;;;;10.81;80.21;99070.91;106518;1271;99321;-45
2023/07/21 02:45:05;;;;;;;1.70;1.00;;;;;;;10.80;80.40;99073.23;106560;1272;25327;-46
2023/07/21 02:47:34;;;;;;;4.10;1.00;;;;;;;10.78;80.36;99072.80;106543;1271;99312;-46
2023/07/21 02:50:07;;;;;;;2.30;0.90;;;;;;;10.76;80.34;99072.26;106574;1271;25411;-46
2023/07/21 02:52:36;;;;;;;3.40;1.30;;;;;;;10.74;80.50;99081.39;106617;1271;24218;-48
2023/07/21 02:55:06;;;;;;;4.10;1.00;;;;;;;10.73;80.58;99084.93;106300;1271;99535;-47
2023/07/21 02:57:34;;;;;;;5.90;1.40;;;;;;;10.72;80.77;99085.32;106364;1272;22540;-46
2023/07/21 03:00:04;;;;;;;6.10;1.20;;;;;;;10.73;80.75;99089.48;106467;1271;99156;-48
2023/07/21 03:02:34;;;;;;;3.20;1.10;;;;;;;10.74;81.22;99091.48;106485;1272;25286;-46
2023/07/21 03:05:04;;;;;;;6.20;1.10;;;;;;;10.77;81.18;99090.59;106507;1271;22542;-46
2023/07/21 03:07:33;;;;;;;13.40;1.50;;;;;;;10.80;81.45;99084.53;106291;1272;99158;-48
2023/07/21 03:10:02;;;;;;;16.50;2.40;;;;;;;10.85;81.65;99082.67;106540;1268;22526;-50
2023/07/21 03:12:30;;;;;;;16.10;3.10;;;;;;;10.89;81.55;99083.46;106529;1271;99373;-49
2023/07/21 03:14:59;;;;;;;6.20;1.40;;;;;;;10.99;82.05;99080.09;106685;1272;24412;-46
2023/07/21 03:17:28;;;;;;;3.40;1.10;;;;;;;11.14;82.27;99091.75;106422;1272;101787;-46
2023/07/21 03:19:57;;;;;;;4.70;1.50;;;;;;;11.31;82.81;99097.86;106548;1271;22640;-48
2023/07/21 03:22:26;;;;;;;4.30;1.10;;;;;;;11.49;82.94;99084.27;106560;1272;24236;-47
2023/07/21 03:24:56;;;;;;;1.50;0.80;;;;;;;11.62;82.62;99092.17;106435;1271;99106;-46
2023/07/21 03:27:26;;;;;;;2.60;1.30;;;;;;;11.73;82.65;99093.91;106506;1268;22681;-47
2023/07/21 03:29:55;;;;;;;2.10;1.00;;;;;;;11.82;82.68;99099.48;106426;1271;99384;-47
2023/07/21 03:32:24;;;;;;;3.00;1.00;;;;;;;11.91;82.70;99102.94;106581;1271;22525;-46
2023/07/21 03:34:55;;;;;;;4.40;1.50;;;;;;;12.01;82.76;99106.53;106523;1272;22610;-46
2023/07/21 03:37:25;;;;;;;1.50;1.00;;;;;;;12.09;82.75;99106.36;106442;1271;99280;-47
2023/07/21 03:39:54;;;;;;;4.70;1.40;;;;;;;12.14;82.82;99111.41;106751;1272;22567;-47
2023/07/21 03:42:23;;;;;;;3.60;1.20;;;;;;;12.19;82.77;99109.22;106445;1273;99164;-46
2023/07/21 03:44:52;;;;;;;1.80;0.90;;;;;;;12.24;82.85;99104.00;106629;1271;22527;-46
2023/07/21 03:47:20;;;;;;;3.80;1.40;;;;;;;12.29;82.79;99105.27;106596;1272;99241;-47
2023/07/21 03:49:50;;;;;;;6.20;1.50;;;;;;;12.33;83.01;99106.75;106571;1271;22531;-45
2023/07/21 03:52:19;;;;;;;4.80;1.20;;;;;;;12.37;82.87;99105.10;106458;1272;22543;-54
2023/07/21 03:54:47;;;;;;;3.10;1.10;;;;;;;12.40;82.78;99108.27;106357;1272;99273;-46
2023/07/21 03:57:16;;;;;;;4.90;1.30;;;;;;;12.43;82.91;99106.14;106475;1271;24260;-46
2023/07/21 03:59:45;;;;;;;3.60;1.00;;;;;;;12.48;82.94;99105.75;106444;1272;99311;-47
2023/07/21 04:02:16;;;;;;;3.70;1.30;;;;;;;12.52;82.91;99103.98;106372;1272;26745;-46
2023/07/21 04:04:46;;;;;;;3.20;1.00;;;;;;;12.53;82.91;99103.75;106450;1269;22645;-46
2023/07/21 04:07:15;;;;;;;2.30;1.10;;;;;;;12.50;82.92;99109.30;106441;1272;99781;-47
2023/07/21 04:09:44;;;;;;;2.70;1.70;;;;;;;12.49;83.08;99108.15;106566;1272;25326;-47
2023/07/21 04:12:12;;;;;;;5.60;1.10;;;;;;;12.49;83.19;99109.22;106290;1273;99256;-46
2023/07/21 04:14:40;;;;;;;5.90;1.20;;;;;;;12.54;83.47;99109.77;106537;1272;25396;-47
2023/07/21 04:17:11;;;;;;;4.00;1.00;;;;;;;12.59;83.74;99108.70;106606;1271;22523;-46
2023/07/21 04:19:40;;;;;;;3.60;1.20;;;;;;;12.66;83.85;99112.13;106480;1272;25309;-46
2023/07/21 04:22:09;;;;;;;7.60;2.00;;;;;;;12.75;84.10;99111.70;106494;1273;25473;-47
2023/07/21 04:24:37;;;;;;;4.60;1.40;;;;;;;12.88;84.22;99112.80;106552;1272;99121;-48
2023/07/21 04:27:06;;;;;;;3.30;1.30;;;;;;;13.03;84.35;99114.05;106558;1271;25969;-46
2023/07/21 04:29:35;;;;;;;3.10;1.20;;;;;;;13.09;84.05;99111.34;106449;1269;99880;-47
2023/07/21 04:32:05;;;;;;;3.60;1.40;;;;;;;13.10;83.63;99103.45;106678;1271;22534;-47
2023/07/21 04:34:35;;;;;;;4.90;1.70;;;;;;;13.11;83.95;99105.29;106535;1272;22782;-47
2023/07/21 04:37:04;;;;;;;3.00;1.20;;;;;;;13.15;84.35;99100.61;106295;1275;99134;-46
2023/07/21 04:39:32;;;;;;;4.20;1.40;;;;;;;13.18;84.39;99093.45;106527;1277;22557;-47
2023/07/21 04:42:01;;;;;;;6.20;1.30;;;;;;;13.17;84.32;99094.18;106475;1271;99786;-47
2023/07/21 04:44:29;;;;;;;2.00;1.10;;;;;;;13.12;84.08;99094.52;106485;1271;25358;-46
2023/07/21 04:46:58;;;;;;;2.60;1.10;;;;;;;13.05;84.01;99100.79;106566;1272;22592;-48
2023/07/21 04:49:27;;;;;;;3.50;1.10;;;;;;;12.99;84.09;99107.34;106520;1271;99088;-45
2023/07/21 04:51:58;;;;;;;6.20;1.40;;;;;;;12.96;84.36;99107.33;106517;1271;24219;-46
2023/07/21 04:54:27;;;;;;;4.60;1.60;;;;;;;13.00;84.92;99110.41;106373;1271;99220;-47
2023/07/21 04:56:56;;;;;;;7.80;2.00;;;;;;;13.07;85.07;99109.19;106542;1271;25365;-46
2023/07/21 04:59:25;;;;;;;2.60;1.30;;;;;;;13.13;85.01;99114.06;106373;1272;99288;-46
2023/07/21 05:01:56;;;;;;;3.10;1.20;;;;;;;13.16;85.00;99112.59;106475;1277;22665;-47
2023/07/21 05:04:25;;;;;;;2.60;1.10;;;;;;;13.23;85.12;99119.18;106570;1272;25507;-46
2023/07/21 05:06:54;;;;;;;2.40;1.00;;;;;;;13.31;85.24;99119.17;106447;1273;99129;-46
2023/07/21 05:09:23;;;;;;;6.10;1.80;;;;;;;13.43;85.39;99121.67;106479;1271;25429;-46
2023/07/21 05:11:51;;;;;;;3.10;1.20;;;;;;;13.59;85.65;99115.27;106456;1271;100124;-46
2023/07/21 05:14:20;;;;;;;3.00;1.30;;;;;;;13.82;85.67;99114.98;106525;1272;24230;-46
2023/07/21 05:16:49;;;;;;;4.50;1.20;;;;;;;14.06;85.56;99115.54;106494;1264;25345;-47
2023/07/21 05:19:17;;;;;;;3.30;1.10;;;;;;;14.23;85.35;99114.14;106488;1272;99270;-46
2023/07/21 05:21:46;;;;;;;2.70;1.00;;;;;;;14.31;84.91;99109.55;106525;1271;25420;-46
2023/07/21 05:24:15;;;;;;;3.30;1.30;;;;;;;14.40;84.97;99108.67;106371;1275;99579;-46
2023/07/21 05:26:43;;;;;;;3.00;1.20;;;;;;;14.56;85.06;99110.15;106597;1271;24244;-47
2023/07/21 05:29:12;;;;;;;3.20;1.30;;;;;;;14.64;84.61;99110.33;106557;1273;99696;-48
2023/07/21 05:31:41;;;;;;;2.70;1.00;;;;;;;14.62;84.29;99110.45;106520;1271;24253;-47
2023/07/21 05:34:09;;;;;;;4.20;1.10;;;;;;;14.59;84.37;99113.49;106527;1271;25555;-46
2023/07/21 05:36:38;;;;;;;3.30;1.10;;;;;;;14.63;84.54;99109.15;106527;1272;99045;-46
2023/07/21 05:39:07;;;;;;;4.50;1.40;;;;;;;14.68;84.63;99114.70;106579;1271;22546;-46
2023/07/21 05:41:36;;;;;;;3.60;1.20;;;;;;;14.75;84.60;99115.48;106239;1277;99429;-46
2023/07/21 05:44:05;;;;;;;5.20;1.20;;;;;;;14.79;84.57;99117.76;106640;1277;24334;-47
2023/07/21 05:46:33;;;;;;;2.50;0.90;;;;;;;14.94;84.87;99114.73;106408;1274;22534;-46
2023/07/21 05:49:02;;;;;;;1.70;0.90;;;;;;;15.16;85.16;99110.14;106454;1271;99115;-48
2023/07/21 05:51:32;;;;;;;4.00;1.10;;;;;;;15.44;84.92;99112.15;106548;1271;24217;-47
2023/07/21 05:54:03;;;;;;;2.80;1.20;;;;;;;15.74;84.90;99106.33;106615;1276;99749;-47
2023/07/21 05:56:32;;;;;;;3.70;1.30;;;;;;;15.99;83.94;99106.14;106757;1272;25353;-47
2023/07/21 05:59:01;;;;;;;2.20;1.00;;;;;;;16.10;83.78;99106.45;106612;1272;25912;-49
2023/07/21 06:01:30;;;;;;;3.30;1.30;;;;;;;16.13;82.99;99102.34;106551;1271;98949;-47
2023/07/21 06:03:59;;;;;;;1.80;1.00;;;;;;;16.16;82.91;99100.91;106655;1272;26612;-46
2023/07/21 06:06:29;;;;;;;4.70;0.90;;;;;;;16.26;83.27;99101.14;106453;1271;99116;-46
2023/07/21 06:08:58;;;;;;;2.50;1.10;;;;;;;16.53;83.96;99099.31;106431;1272;22638;-46
2023/07/21 06:11:27;;;;;;;2.20;0.90;;;;;;;16.94;84.04;99099.51;106461;1271;99831;-46
2023/07/21 06:13:56;;;;;;;2.70;0.90;;;;;;;17.41;84.30;99098.30;106491;1272;22554;-46
2023/07/21 06:16:24;;;;;;;4.50;1.20;;;;;;;18.01;84.32;99096.00;106530;1273;25325;-48
2023/07/21 06:18:54;;;;;;;1.40;0.70;;;;;;;18.52;82.98;99087.36;106444;1271;99656;-46
2023/07/21 06:21:23;;;;;;;3.00;1.00;;;;;;;18.79;81.15;99093.58;106381;1274;22513;-46
2023/07/21 06:23:53;;;;;;;2.20;1.00;;;;;;;18.90;80.86;99091.38;106439;1273;99783;-46
2023/07/21 06:26:21;;;;;;;3.00;0.70;;;;;;;19.05;80.83;99094.23;106502;1273;22593;-46
2023/07/21 06:28:51;;;;;;;3.50;1.10;;;;;;;19.26;80.48;99102.48;106396;1273;22544;-46
2023/07/21 06:31:21;;;;;;;2.50;0.90;;;;;;;19.48;80.29;99105.02;106436;1275;99204;-47
2023/07/21 06:33:51;;;;;;;5.20;0.70;;;;;;;19.55;78.90;99105.23;106372;1275;22540;-49
2023/07/21 06:36:20;;;;;;;1.90;0.90;;;;;;;19.45;78.61;99104.04;106436;1272;99208;-47
2023/07/21 06:38:49;;;;;;;1.50;0.90;;;;;;;19.39;78.12;99107.66;106465;1274;22553;-46
2023/07/21 06:41:18;;;;;;;1.20;0.70;;;;;;;19.29;77.89;99103.61;106409;1273;100187;-46
2023/07/21 06:43:46;;;;;;;2.50;0.90;;;;;;;19.23;77.44;99105.58;106420;1272;22658;-45
2023/07/21 06:46:15;;;;;;;3.60;0.90;;;;;;;19.17;77.43;99106.05;106389;1273;23064;-47
2023/07/21 06:48:44;;;;;;;2.40;0.90;;;;;;;19.17;77.76;99103.34;106315;1275;99172;-49
2023/07/21 06:51:13;;;;;;;1.80;1.00;;;;;;;19.50;78.39;99108.58;106764;1270;25377;-46
2023/07/21 06:53:42;;;;;;;3.10;0.70;;;;;;;19.94;77.82;99101.43;106632;1273;99386;-46
2023/07/21 06:56:13;;;;;;;2.70;1.00;;;;;;;20.23;76.11;99103.41;106609;1277;23011;-46
2023/07/21 06:58:45;;;;;;;5.80;1.90;;;;;;;20.50;76.49;99103.92;106747;1274;22530;-45
2023/07/21 07:01:14;;;;;;;3.80;1.20;;;;;;;20.91;76.02;99101.10;106967;1273;99439;-47
2023/07/21 07:03:51;;;;;;;2.30;0.80;;;;;;;21.38;75.89;99099.09;107055;1273;22691;-45
2023/07/21 07:06:19;;;;;;;6.30;1.00;;;;;;;22.00;76.26;99099.52;106566;1275;99178;-47
2023/07/21 07:08:52;;;;;;;2.90;0.90;;;;;;;22.66;74.81;99100.73;107061;1273;25368;-45
2023/07/21 07:11:22;;;;;;;3.10;0.90;;;;;;;22.99;73.06;99094.71;106433;1273;99364;-46
2023/07/21 07:13:51;;;;;;;2.30;1.00;;;;;;;23.09;72.36;99099.52;106672;1275;24221;-45
2023/07/21 07:16:19;;;;;;;5.40;1.00;;;;;;;23.36;72.95;99096.46;106569;1272;25457;-49
2023/07/21 07:18:48;;;;;;;2.90;0.90;;;;;;;23.80;72.53;99099.75;106670;1273;99166;-46
2023/07/21 07:21:21;;;;;;;3.30;1.00;;;;;;;24.56;71.41;99097.83;106580;1277;22633;-46
2023/07/21 07:23:51;;;;;;;4.30;1.10;;;;;;;25.08;70.02;99099.18;106623;1274;99381;-45
2023/07/21 07:26:19;;;;;;;4.00;1.50;;;;;;;25.16;68.51;99098.19;106661;1273;22530;-46
2023/07/21 07:28:48;;;;;;;5.80;1.10;;;;;;;25.54;68.91;99098.56;106685;1272;24529;-47
2023/07/21 07:31:41;;;;;;;3.80;1.30;;;;;;;26.57;70.16;99096.35;106963;1274;99151;-45
2023/07/21 07:34:10;;;;;;;5.30;1.50;;;;;;;27.55;66.20;99099.01;106620;1277;22679;-46
2023/07/21 07:36:39;;;;;;;3.90;1.10;;;;;;;27.63;64.99;99104.58;106821;1271;99107;-46
2023/07/21 07:39:12;;;;;;;6.80;1.20;;;;;;;27.70;65.21;99106.77;107531;1273;22622;-47
2023/07/21 07:41:41;;;;;;;3.00;1.40;;;;;;;28.17;63.72;99106.88;106659;1273;99329;-46
2023/07/21 07:44:11;;;;;;;5.60;1.60;;;;;;;28.50;62.67;99106.66;106926;1274;22552;-45
2023/07/21 07:46:41;;;;;;;6.80;1.30;;;;;;;28.36;61.92;99111.61;106589;1269;22564;-45
2023/07/21 07:49:10;;;;;;;5.50;1.20;;;;;;;28.42;62.88;99112.16;106405;1272;99237;-45
2023/07/21 07:51:39;;;;;;;8.10;1.20;;;;;;;29.34;62.18;99109.63;107099;1271;25486;-45
2023/07/21 07:54:08;;;;;;;6.30;1.60;;;;;;;30.24;58.88;99113.17;106665;1273;99318;-46
2023/07/21 07:56:38;;;;;;;5.30;1.20;;;;;;;30.04;58.75;99107.88;106608;1271;22678;-46
2023/07/21 07:59:07;;;;;;;4.40;1.30;;;;;;;30.13;58.43;99108.98;106535;1274;22530;-46
2023/07/21 08:01:35;;;;;;;3.80;1.20;;;;;;;30.20;57.51;99113.55;106347;1273;340200;-46
2023/07/21 08:04:04;;;;;;;3.10;1.40;;;;;;;30.93;57.45;99110.67;106635;1271;24047;-46
2023/07/21 08:06:33;;;;;;;2.90;0.90;;;;;;;30.97;54.09;99111.52;106378;1272;99023;-48
2023/07/21 08:09:03;;;;;;;8.10;1.20;;;;;;;31.22;56.03;99113.84;106603;1271;24227;-47
2023/07/21 08:11:32;;;;;;;6.30;1.20;;;;;;;32.34;54.46;99114.70;106537;1270;100136;-47
2023/07/21 08:14:01;;;;;;;9.10;1.70;;;;;;;32.88;52.97;99118.34;106528;1274;25611;-48
2023/07/21 08:16:35;;;;;;;3.80;1.30;;;;;;;32.27;51.44;99122.17;106818;1274;22577;-48
2023/07/21 08:19:05;;;;;;;2.70;1.00;;;;;;;31.08;50.82;99125.34;106802;1272;99127;-47
2023/07/21 08:21:41;;;;;;;4.50;1.20;;;;;;;30.18;51.20;99127.10;106846;1274;24236;-46
2023/07/21 08:24:17;;;;;;;4.30;0.90;;;;;;;29.33;49.44;99122.77;106717;1272;99459;-46
2023/07/21 08:26:51;;;;;;;2.40;1.00;;;;;;;28.38;49.49;99126.35;106757;1273;22792;-47
2023/07/21 08:29:20;;;;;;;2.50;0.90;;;;;;;27.65;49.44;99127.41;106715;1272;99799;-46
2023/07/21 08:31:49;;;;;;;2.90;1.10;;;;;;;27.75;49.74;99128.09;106770;1272;23114;-45
2023/07/21 08:34:18;;;;;;;3.20;1.30;;;;;;;27.91;49.07;99122.45;107021;1272;22784;-47
2023/07/21 08:36:48;;;;;;;10.00;1.80;;;;;;;27.79;48.21;99122.39;106948;1273;99661;-46
2023/07/21 08:39:30;;;;;;;11.10;1.40;;;;;;;27.33;47.77;99121.42;106744;1272;24266;-46
2023/07/21 08:42:02;;;;;;;2.00;0.70;;;;;;;26.73;47.35;99122.69;106698;1273;100431;-48
2023/07/21 08:44:37;;;;;;;14.50;1.40;;;;;;;26.18;47.76;99127.34;106737;1271;22534;-48
2023/07/21 08:47:09;;;;;;;1.30;0.70;;;;;;;27.09;48.99;99129.60;106845;1272;25270;-45
2023/07/21 08:49:40;;;;;;;2.50;1.00;;;;;;;27.82;47.13;99133.39;107762;1273;98952;-46
2023/07/21 08:52:09;;;;;;;15.70;1.50;;;;;;;27.93;46.49;99135.11;107009;1272;22869;-47
2023/07/21 08:54:38;;;;;;;2.70;1.00;;;;;;;28.32;47.03;99133.89;106649;1274;100395;-46
2023/07/21 08:57:07;;;;;;;2.90;0.90;;;;;;;29.94;47.27;99129.33;106803;1272;22530;-47
2023/07/21 08:59:35;;;;;;;3.30;0.80;;;;;;;31.66;47.20;99131.00;106491;1273;99692;-48
2023/07/21 09:02:05;;;;;;;1.60;0.70;;;;;;;32.79;44.35;99134.70;107024;1268;22650;-47
2023/07/21 09:04:34;;;;;;;1.10;0.70;;;;;;;31.93;43.14;99134.10;106646;1272;23916;-48
2023/07/21 09:07:12;;;;;;;3.60;0.70;;;;;;;30.62;43.37;99135.55;106746;1269;100864;-47
2023/07/21 09:09:49;;;;;;;7.40;1.40;;;;;;;30.75;45.21;99136.75;106955;1267;25473;-46
2023/07/21 09:12:20;;;;;;;2.40;1.00;;;;;;;31.85;43.78;99136.07;106645;1272;99126;-46
2023/07/21 09:14:49;;;;;;;2.10;0.90;;;;;;;31.85;42.48;99142.09;107572;1274;24050;-46
2023/07/21 09:17:21;;;;;;;3.70;1.30;;;;;;;30.90;42.24;99139.27;106470;1274;99372;-46
2023/07/21 09:19:58;;;;;;;5.90;1.40;;;;;;;29.76;42.33;99142.92;106833;1273;22762;-46
2023/07/21 09:22:27;;;;;;;2.60;1.20;;;;;;;28.71;42.47;99147.24;106703;1272;22539;-47
2023/07/21 09:24:58;;;;;;;3.40;1.00;;;;;;;27.58;42.05;99153.33;106530;1272;99213;-49
2023/07/21 09:27:27;;;;;;;5.30;1.30;;;;;;;26.38;42.33;99151.63;106580;1273;26153;-47
2023/07/21 09:30:03;;;;;;;3.70;1.00;;;;;;;25.62;42.90;99149.45;106532;1271;99656;-47
2023/07/21 09:32:39;;;;;;;;;;;;;;;26.04;43.75;99146.51;107069;1272;22723;-51
2023/07/21 09:35:10;;;;;;;;;;;;;;;26.08;42.51;99144.06;106805;1272;25375;-47
2023/07/21 09:37:52;;;;;;;3.60;1.40;;;;;;;26.53;44.00;99137.61;107235;1272;24416;-46
2023/07/21 09:40:28;;;;;;;7.50;1.30;;;;;;;28.90;44.54;99136.43;106976;1273;24031;-47
2023/07/21 09:43:05;;;;;;;5.10;1.00;;;;;;;31.78;43.86;99127.16;107170;1256;99118;-48
2023/07/21 09:45:39;;;;;;;3.10;1.00;;;;;;;34.45;42.37;99126.56;106545;1272;22645;-50
2023/07/21 09:48:11;;;;;;;2.90;0.90;;;;;;;35.04;40.34;99126.84;106512;1271;99287;-49
2023/07/21 09:50:43;;;;;;;2.10;0.90;;;;;;;33.95;39.11;99127.98;106825;1272;24220;-47
2023/07/21 09:53:20;;;;;;;2.10;0.70;;;;;;;33.01;40.38;99129.48;106760;1272;25358;-49
2023/07/21 09:56:18;;;;;;;2.70;0.80;;;;;;;34.21;40.62;99125.51;106891;1258;22608;-51
2023/07/21 09:59:13;;;;;;;2.60;0.70;;;;;;;35.01;38.42;99130.79;106864;1273;22563;-52
2023/07/21 10:02:10;;;;;;;2.00;0.80;;;;;;;36.09;38.90;99135.29;106929;1272;23873;-52
2023/07/21 10:04:48;;;;;;;1.50;0.80;;;;;;;35.62;36.58;99133.51;106888;1273;22635;-50
2023/07/21 10:07:28;;;;;;;3.00;1.10;;;;;;;33.76;35.69;99135.39;106386;1273;99196;-49
2023/07/21 10:10:00;;;;;;;1.20;0.60;;;;;;;31.73;35.73;99142.38;106908;1271;24293;-47
2023/07/21 10:12:52;;;;;;;2.50;0.80;;;;;;;29.92;35.61;99141.77;106626;1272;100553;-47
2023/07/21 10:15:29;;;;;;;2.00;0.90;;;;;;;29.41;36.22;99145.95;106704;1268;22545;-48
2023/07/21 10:18:09;;;;;;;1.40;0.80;;;;;;;28.74;35.61;99142.95;106772;1271;99387;-48
2023/07/21 10:20:56;;;;;;;2.50;1.00;;;;;;;27.83;35.28;99146.66;108518;1272;26294;-48
2023/07/21 10:23:39;;;;;;;0.70;0.50;;;;;;;27.24;35.74;99137.44;106650;1276;24051;-49
2023/07/21 10:26:20;;;;;;;5.30;1.10;;;;;;;26.74;35.46;99139.02;106805;1273;23788;-50
2023/07/21 10:28:51;;;;;;;1.00;0.80;;;;;;;26.36;35.02;99143.48;107066;1277;23807;-46
2023/07/21 10:31:26;;;;;;;3.30;1.10;;;;;;;26.10;35.75;99143.34;106449;1273;99123;-49
2023/07/21 10:34:07;;;;;;;4.60;0.60;;;;;;;25.58;35.44;99146.67;106803;1273;22604;-49
2023/07/21 10:37:02;;;;;;;5.10;1.00;;;;;;;24.51;36.45;99162.88;106390;1273;99276;-49
2023/07/21 10:39:33;;;;;;;5.70;1.30;;;;;;;23.32;37.31;99173.11;106351;1273;22536;-47
2023/07/21 10:42:05;;;;;;;3.70;1.30;;;;;;;22.46;38.16;99174.66;106350;1273;100051;-48
2023/07/21 10:44:38;;;;;;;1.60;0.90;;;;;;;22.03;38.92;99182.30;106582;1273;22541;-45
2023/07/21 10:47:14;;;;;;;1.80;0.80;;;;;;;21.62;39.12;99190.59;106461;1274;24077;-46
2023/07/21 10:49:48;;;;;;;2.70;0.70;;;;;;;21.09;39.48;99198.22;106363;1273;99177;-46
2023/07/21 10:52:18;;;;;;;2.60;0.60;;;;;;;20.60;39.34;99197.52;106327;1273;23417;-45
2023/07/21 10:54:47;;;;;;;2.30;0.80;;;;;;;20.09;40.10;99198.01;106416;1273;99662;-46
2023/07/21 10:57:16;;;;;;;1.80;0.60;;;;;;;19.52;40.18;99203.31;106484;1273;23423;-45
2023/07/21 10:59:45;;;;;;;0.70;0.60;;;;;;;19.54;40.76;99201.91;106464;1273;99775;-45
2023/07/21 11:02:14;;;;;;;2.80;0.50;;;;;;;19.79;41.23;99198.17;106399;1273;25487;-55
2023/07/21 11:05:05;;;;;;;0.80;0.50;;;;;;;20.01;41.62;99189.42;107759;1274;23093;-56
2023/07/21 11:07:34;;;;;;;1.10;0.60;;;;;;;20.34;42.20;99186.30;107098;1273;99548;-55
2023/07/21 11:10:03;;;;;;;4.90;0.60;;;;;;;20.67;42.34;99184.63;106416;1278;26768;-55
2023/07/21 11:12:32;;;;;;;1.90;0.50;;;;;;;21.24;43.21;99187.31;106461;1274;100144;-55
2023/07/21 11:15:01;;;;;;;0.60;0.50;;;;;;;22.49;43.63;99181.65;106357;1273;23021;-55
2023/07/21 11:17:32;;;;;;;0.40;0.40;;;;;;;24.50;44.06;99176.77;106479;1274;24227;-56
2023/07/21 11:20:10;;;;;;;1.10;0.40;;;;;;;27.01;43.25;99169.05;106411;1257;24258;-56
2023/07/21 11:22:39;;;;;;;1.10;0.50;;;;;;;29.17;42.27;99156.16;106460;1273;22550;-58
2023/07/21 11:25:10;;;;;;;1.50;0.50;;;;;;;30.92;42.16;99155.64;106557;1271;99137;-57
2023/07/21 11:27:43;;;;;;;0.80;0.40;;;;;;;32.65;41.39;99154.92;106487;1271;22761;-56
2023/07/21 11:30:17;;;;;;;1.20;0.50;;;;;;;33.97;40.98;99149.63;106406;1273;99622;-56
2023/07/21 11:32:47;;;;;;;0.90;0.40;;;;;;;35.01;39.80;99143.43;106383;1272;22607;-56
2023/07/21 11:35:16;;;;;;;1.00;0.60;;;;;;;35.60;39.14;99139.38;106367;1273;24225;-55
2023/07/21 11:37:45;;;;;;;0.90;0.40;;;;;;;35.78;37.37;99134.84;107381;1272;100251;-56
2023/07/21 11:40:22;;;;;;;1.00;0.60;;;;;;;35.96;37.37;99134.92;106446;1273;22766;-55
2023/07/21 11:42:56;;;;;;;1.90;0.40;;;;;;;35.86;35.98;99125.98;106329;1272;99124;-56
2023/07/21 11:45:33;;;;;;;1.20;0.50;;;;;;;36.04;36.09;99126.70;106473;1273;22614;-58